createdAt,value
2022-11-12T00:02:44.259Z,86.40
2022-11-12T00:05:33.699Z,86.50
2022-11-12T00:08:21.889Z,86.60
2022-11-12T00:11:09.544Z,86.50
2022-11-12T00:13:57.362Z,86.50
2022-11-12T00:16:44.904Z,86.70
2022-11-12T00:19:32.517Z,86.80
2022-11-12T00:22:20.821Z,86.70
2022-11-12T00:25:08.923Z,86.90
2022-11-12T00:28:10.215Z,86.80
2022-11-12T00:30:57.967Z,86.80
2022-11-12T00:33:45.941Z,86.80
2022-11-12T00:36:33.751Z,86.70
2022-11-12T00:39:21.373Z,86.80
2022-11-12T00:42:09.297Z,86.70
2022-11-12T00:44:57.217Z,86.80
2022-11-12T00:47:45.005Z,86.80
2022-11-12T00:50:32.784Z,86.90
2022-11-12T00:53:20.772Z,87.10
2022-11-12T00:56:08.579Z,87.10
2022-11-12T00:58:56.266Z,87.10
2022-11-12T01:01:43.791Z,87.20
2022-11-12T01:04:31.782Z,87.20
2022-11-12T01:07:19.618Z,87.30
2022-11-12T01:10:09.285Z,87.10
2022-11-12T01:12:57.227Z,87.10
2022-11-12T01:15:44.695Z,87.30
2022-11-12T01:18:32.604Z,87.30
2022-11-12T01:21:21.577Z,87.30
2022-11-12T01:24:09.953Z,87.10
2022-11-12T01:26:57.917Z,87.30
2022-11-12T01:29:45.342Z,87.20
2022-11-12T01:32:37.541Z,87.30
2022-11-12T01:35:25.187Z,87.30
2022-11-12T01:38:12.656Z,87.30
2022-11-12T01:41:00.117Z,87.50
2022-11-12T01:43:48.687Z,87.60
2022-11-12T01:46:47.229Z,87.70
2022-11-12T01:49:37.275Z,87.70
2022-11-12T01:52:33.392Z,87.80
2022-11-12T01:55:25.504Z,87.80
2022-11-12T01:58:15.696Z,87.80
2022-11-12T02:01:03.563Z,87.60
2022-11-12T02:03:51.459Z,87.50
2022-11-12T02:06:41.359Z,87.50
2022-11-12T02:09:29.775Z,87.70
2022-11-12T02:12:35.452Z,87.60
2022-11-12T02:15:42.951Z,87.70
2022-11-12T02:18:31.114Z,87.80
2022-11-12T02:21:22.622Z,87.70
2022-11-12T02:24:13.045Z,87.80
2022-11-12T02:27:01.046Z,87.70
2022-11-12T02:29:48.950Z,87.50
2022-11-12T02:32:36.674Z,87.40
2022-11-12T02:35:24.655Z,87.40
2022-11-12T02:38:12.630Z,87.50
2022-11-12T02:41:00.007Z,87.50
2022-11-12T02:43:47.491Z,87.60
2022-11-12T02:46:35.543Z,87.60
2022-11-12T02:49:23.477Z,87.60
2022-11-12T02:52:11.752Z,87.70
2022-11-12T02:54:59.440Z,87.80
2022-11-12T02:57:46.816Z,87.60
2022-11-12T03:00:34.764Z,87.60
2022-11-12T03:03:22.170Z,87.60
2022-11-12T03:06:10.247Z,87.80
2022-11-12T03:08:58.042Z,87.80
2022-11-12T03:11:46.062Z,87.70
2022-11-12T03:14:33.835Z,87.60
2022-11-12T03:17:21.662Z,87.50
2022-11-12T03:20:10.975Z,87.50
2022-11-12T03:23:03.888Z,87.50
2022-11-12T03:25:51.619Z,87.70
2022-11-12T03:28:39.584Z,87.60
2022-11-12T03:31:27.037Z,87.70
2022-11-12T03:34:14.389Z,87.60
2022-11-12T03:37:01.697Z,87.50
2022-11-12T03:39:49.076Z,87.70
2022-11-12T03:42:37.045Z,87.70
2022-11-12T03:45:27.071Z,87.80
2022-11-12T03:48:14.719Z,87.60
2022-11-12T03:51:02.594Z,87.60
2022-11-12T03:54:02.900Z,87.60
2022-11-12T03:56:50.580Z,87.60
2022-11-12T03:59:37.996Z,87.80
2022-11-12T04:02:26.816Z,87.50
2022-11-12T04:05:33.474Z,87.60
2022-11-12T04:08:39.098Z,87.30
2022-11-12T04:11:26.726Z,87.60
2022-11-12T04:14:14.617Z,87.80
2022-11-12T04:17:20.913Z,87.80
2022-11-12T04:20:27.566Z,87.90
2022-11-12T04:23:15.292Z,88.10
2022-11-12T04:26:22.019Z,88.10
2022-11-12T04:29:28.373Z,88.10
2022-11-12T04:32:16.224Z,88.20
2022-11-12T04:35:05.028Z,88.30
2022-11-12T04:37:53.372Z,88.20
2022-11-12T04:40:58.970Z,88.20
2022-11-12T04:44:05.038Z,88.50
2022-11-12T04:46:52.646Z,88.60
2022-11-12T04:49:40.116Z,88.90
2022-11-12T04:52:29.396Z,89.20
2022-11-12T04:55:17.274Z,89.40
2022-11-12T04:58:04.747Z,89.60
2022-11-12T05:00:52.349Z,89.70
2022-11-12T05:03:40.155Z,89.70
2022-11-12T05:06:46.320Z,89.80
2022-11-12T05:09:34.309Z,89.60
2022-11-12T05:12:21.811Z,89.60
2022-11-12T05:15:11.985Z,89.50
2022-11-12T05:17:59.939Z,89.60
2022-11-12T05:20:47.520Z,89.60
2022-11-12T05:23:35.313Z,89.60
2022-11-12T05:26:23.265Z,89.60
2022-11-12T05:29:10.982Z,89.50
2022-11-12T05:31:58.851Z,89.30
2022-11-12T05:34:46.756Z,89.50
2022-11-12T05:37:34.719Z,89.50
2022-11-12T05:40:22.137Z,89.30
2022-11-12T05:43:10.007Z,89.30
2022-11-12T05:45:57.855Z,89.30
2022-11-12T05:48:45.289Z,89.30
2022-11-12T05:51:32.681Z,89.10
2022-11-12T05:54:20.608Z,89.10
2022-11-12T05:57:08.612Z,89.00
2022-11-12T05:59:56.560Z,89.10
2022-11-12T06:02:44.284Z,89.20
2022-11-12T06:05:33.385Z,89.30
2022-11-12T06:08:20.862Z,89.10
2022-11-12T06:11:08.931Z,88.90
2022-11-12T06:13:56.541Z,88.90
2022-11-12T06:16:43.935Z,88.60
2022-11-12T06:19:31.703Z,88.40
2022-11-12T06:22:18.995Z,89.20
2022-11-12T06:25:06.816Z,88.30
2022-11-12T06:27:54.436Z,88.50
2022-11-12T06:30:41.828Z,88.40
2022-11-12T06:33:29.884Z,88.50
2022-11-12T06:36:19.549Z,88.20
2022-11-12T06:39:07.200Z,87.80
2022-11-12T06:41:54.982Z,87.80
2022-11-12T06:44:42.886Z,87.50
2022-11-12T06:47:31.806Z,87.20
2022-11-12T06:50:19.561Z,87.00
2022-11-12T06:53:06.975Z,86.70
2022-11-12T06:56:01.783Z,86.60
2022-11-12T06:58:51.310Z,86.30
2022-11-12T07:01:39.253Z,86.30
2022-11-12T07:04:27.760Z,86.40
2022-11-12T07:07:15.118Z,86.40
2022-11-12T07:10:03.229Z,86.20
2022-11-12T07:12:53.946Z,86.10
2022-11-12T07:15:41.774Z,85.50
2022-11-12T07:18:30.510Z,84.70
2022-11-12T07:21:20.029Z,84.30
2022-11-12T07:24:08.298Z,84.30
2022-11-12T07:26:55.835Z,84.40
2022-11-12T07:31:25.848Z,83.40
2022-11-12T07:34:13.211Z,80.30
2022-11-12T07:37:00.609Z,78.30
2022-11-12T07:39:48.056Z,79.00
2022-11-12T07:42:35.877Z,79.70
2022-11-12T07:45:23.354Z,80.50
2022-11-12T07:48:11.237Z,80.80
2022-11-12T07:51:03.618Z,80.60
2022-11-12T07:53:58.733Z,80.50
2022-11-12T07:56:47.497Z,80.70
2022-11-12T07:59:35.207Z,80.80
2022-11-12T08:02:22.589Z,80.70
2022-11-12T08:05:15.466Z,80.50
2022-11-12T08:08:05.441Z,80.20
2022-11-12T08:10:57.579Z,80.30
2022-11-12T08:13:45.445Z,80.80
2022-11-12T08:16:33.338Z,79.90
2022-11-12T08:19:20.784Z,79.80
2022-11-12T08:22:08.222Z,79.70
2022-11-12T08:24:56.098Z,79.40
2022-11-12T08:27:43.435Z,79.10
2022-11-12T08:30:31.423Z,79.10
2022-11-12T08:33:19.364Z,79.00
2022-11-12T08:36:08.958Z,78.80
2022-11-12T08:38:56.510Z,79.00
2022-11-12T08:41:44.001Z,78.90
2022-11-12T08:44:31.610Z,78.60
2022-11-12T08:47:19.549Z,78.60
2022-11-12T08:50:08.062Z,78.30
2022-11-12T08:53:07.101Z,78.10
2022-11-12T08:55:56.400Z,77.60
2022-11-12T08:58:43.846Z,77.50
2022-11-12T09:01:31.732Z,77.50
2022-11-12T09:04:19.876Z,77.50
2022-11-12T09:07:09.632Z,77.50
2022-11-12T09:09:58.287Z,77.20
2022-11-12T09:12:51.049Z,77.00
2022-11-12T09:15:38.953Z,76.80
2022-11-12T09:18:27.170Z,76.60
2022-11-12T09:21:15.169Z,76.40
2022-11-12T09:24:03.317Z,76.20
2022-11-12T09:26:53.836Z,76.00
2022-11-12T09:29:41.806Z,75.80
2022-11-12T09:32:30.682Z,75.40
2022-11-12T09:35:18.531Z,75.50
2022-11-12T09:38:05.892Z,75.30
2022-11-12T09:40:53.692Z,75.20
2022-11-12T09:43:53.161Z,75.30
2022-11-12T09:46:48.087Z,75.40
2022-11-12T09:49:48.051Z,75.70
2022-11-12T09:52:38.440Z,75.80
2022-11-12T09:55:33.780Z,75.90
2022-11-12T09:58:21.386Z,76.00
2022-11-12T10:01:19.655Z,75.80
2022-11-12T10:04:26.817Z,75.70
2022-11-12T10:07:41.464Z,75.70
2022-11-12T10:10:46.194Z,75.50
2022-11-12T10:13:52.175Z,75.20
2022-11-12T10:16:47.295Z,74.70
2022-11-12T10:19:44.967Z,74.40
2022-11-12T10:23:01.840Z,74.10
2022-11-12T10:25:51.557Z,73.90
2022-11-12T10:28:45.909Z,73.80
2022-11-12T10:31:34.125Z,73.60
2022-11-12T10:34:23.484Z,73.50
2022-11-12T10:37:38.872Z,73.40
2022-11-12T10:40:26.548Z,73.30
2022-11-12T10:43:16.735Z,73.10
2022-11-12T10:46:24.855Z,72.90
2022-11-12T10:49:15.374Z,72.80
2022-11-12T10:52:02.742Z,72.60
2022-11-12T10:55:04.866Z,72.50
2022-11-12T10:58:09.342Z,72.30
2022-11-12T11:01:07.395Z,72.00
2022-11-12T11:03:57.978Z,71.80
2022-11-12T11:06:45.817Z,71.70
2022-11-12T11:09:34.740Z,71.40
2022-11-12T11:12:26.391Z,71.20
2022-11-12T11:15:22.243Z,71.30
2022-11-12T11:18:12.863Z,71.70
2022-11-12T11:21:19.187Z,71.90
2022-11-12T11:24:21.907Z,72.00
2022-11-12T11:27:27.743Z,72.10
2022-11-12T11:30:19.634Z,72.30
2022-11-12T11:33:40.733Z,72.30
2022-11-12T11:37:04.134Z,72.60
2022-11-12T11:40:10.619Z,72.80
2022-11-12T11:43:07.482Z,73.00
2022-11-12T11:46:00.606Z,73.10
2022-11-12T11:49:20.087Z,73.20
2022-11-12T11:52:26.521Z,73.30
2022-11-12T11:55:40.913Z,73.00
2022-11-12T11:58:53.372Z,72.90
2022-11-12T12:02:04.936Z,72.40
2022-11-12T12:05:06.936Z,72.20
2022-11-12T12:08:08.777Z,72.30
2022-11-12T12:11:12.169Z,72.10
2022-11-12T12:14:11.661Z,71.70
2022-11-12T12:17:02.295Z,71.50
2022-11-12T12:19:50.218Z,71.30
2022-11-12T12:22:47.111Z,71.10
2022-11-12T12:25:41.347Z,71.10
2022-11-12T12:28:43.715Z,70.90
2022-11-12T12:31:40.884Z,70.80
2022-11-12T12:34:41.713Z,70.10
2022-11-12T12:37:39.649Z,69.60
2022-11-12T12:40:34.249Z,69.10
2022-11-12T12:43:45.749Z,68.80
2022-11-12T12:46:40.717Z,68.40
2022-11-12T12:49:33.766Z,68.30
2022-11-12T12:52:21.210Z,68.10
2022-11-12T12:55:37.000Z,68.00
2022-11-12T12:58:27.393Z,67.60
2022-11-12T13:01:21.247Z,67.40
2022-11-12T13:04:09.478Z,67.40
2022-11-12T13:06:57.081Z,67.40
2022-11-12T13:09:44.736Z,67.30
2022-11-12T13:13:01.653Z,67.20
2022-11-12T13:15:54.703Z,67.10
2022-11-12T13:18:42.143Z,67.10
2022-11-12T13:21:30.157Z,67.10
2022-11-12T13:24:17.610Z,66.80
2022-11-12T13:27:05.150Z,66.60
2022-11-12T13:29:52.607Z,66.50
2022-11-12T13:32:46.436Z,66.00
2022-11-12T13:35:39.613Z,65.90
2022-11-12T13:38:28.043Z,65.70
2022-11-12T13:41:19.516Z,65.90
2022-11-12T13:44:10.045Z,65.90
2022-11-12T13:46:57.858Z,65.90
2022-11-12T13:49:47.038Z,66.00
2022-11-12T13:52:35.273Z,66.00
2022-11-12T13:55:23.323Z,65.90
2022-11-12T13:58:37.519Z,65.50
2022-11-12T14:01:25.741Z,65.20
2022-11-12T14:04:16.103Z,65.10
2022-11-12T14:07:36.003Z,64.70
2022-11-12T14:10:45.749Z,64.70
2022-11-12T14:13:41.205Z,65.10
2022-11-12T14:16:37.101Z,65.30
2022-11-12T14:19:41.142Z,65.70
2022-11-12T14:22:38.928Z,66.10
2022-11-12T14:25:27.813Z,66.40
2022-11-12T14:28:25.620Z,66.90
2022-11-12T14:31:15.117Z,67.40
2022-11-12T14:34:22.475Z,67.80
2022-11-12T14:37:36.388Z,68.20
2022-11-12T14:40:29.632Z,68.60
2022-11-12T14:43:32.571Z,69.00
2022-11-12T14:46:24.756Z,69.30
2022-11-12T14:49:18.083Z,69.50
2022-11-12T14:52:28.408Z,69.80
2022-11-12T14:55:21.487Z,70.30
2022-11-12T14:58:14.749Z,70.70
2022-11-12T15:04:59.637Z,70.90
2022-11-12T15:08:01.477Z,71.20
2022-11-12T15:10:49.884Z,71.50
2022-11-12T15:13:40.230Z,72.00
2022-11-12T15:16:29.556Z,72.30
2022-11-12T15:19:23.256Z,72.30
2022-11-12T15:22:21.163Z,72.60
2022-11-12T15:25:31.910Z,72.70
2022-11-12T15:28:25.163Z,72.80
2022-11-12T15:31:21.069Z,72.90
2022-11-12T15:34:41.013Z,73.00
2022-11-12T15:37:41.849Z,72.90
2022-11-12T15:40:30.889Z,73.00
2022-11-12T15:43:23.486Z,73.10
2022-11-12T15:46:14.019Z,73.10
2022-11-12T15:49:06.586Z,72.90
2022-11-12T15:51:53.954Z,73.00
2022-11-12T15:54:41.521Z,73.20
2022-11-12T15:57:32.184Z,73.40
2022-11-12T16:00:22.856Z,73.60
2022-11-12T16:03:18.946Z,73.60
2022-11-12T16:06:09.188Z,73.80
2022-11-12T16:08:57.206Z,74.10
2022-11-12T16:11:44.596Z,74.30
2022-11-12T16:14:32.802Z,74.40
2022-11-12T16:17:21.103Z,74.60
2022-11-12T16:20:28.657Z,74.60
2022-11-12T16:23:16.685Z,74.80
2022-11-12T16:26:07.905Z,75.00
2022-11-12T16:28:55.475Z,75.30
2022-11-12T16:31:44.829Z,75.50
2022-11-12T16:34:32.842Z,75.70
2022-11-12T16:37:20.486Z,75.80
2022-11-12T16:40:14.165Z,75.90
2022-11-12T16:43:02.066Z,75.90
2022-11-12T16:45:50.253Z,76.10
2022-11-12T16:48:38.979Z,76.50
2022-11-12T16:51:26.700Z,76.80
2022-11-12T16:54:14.055Z,76.90
2022-11-12T16:57:01.607Z,77.20
2022-11-12T16:59:49.008Z,77.40
2022-11-12T17:02:42.150Z,77.60
2022-11-12T17:05:31.871Z,77.90
2022-11-12T17:08:19.200Z,78.00
2022-11-12T17:11:09.827Z,78.10
2022-11-12T17:13:57.450Z,78.10
2022-11-12T17:16:45.288Z,78.30
2022-11-12T17:19:32.933Z,78.40
2022-11-12T17:22:20.466Z,78.60
2022-11-12T17:25:08.568Z,78.80
2022-11-12T17:27:56.185Z,79.00
2022-11-12T17:30:44.097Z,79.10
2022-11-12T17:33:32.575Z,79.20
2022-11-12T17:36:23.402Z,79.40
2022-11-12T17:39:12.874Z,79.60
2022-11-12T17:42:00.261Z,79.70
2022-11-12T17:44:47.652Z,79.90
2022-11-12T17:47:40.151Z,80.10
2022-11-12T17:50:27.955Z,80.30
2022-11-12T17:53:17.055Z,80.30
2022-11-12T17:56:05.771Z,80.50
2022-11-12T17:58:54.141Z,80.70
2022-11-12T18:01:42.209Z,80.80
2022-11-12T18:04:31.154Z,80.90
2022-11-12T18:07:19.027Z,81.00
2022-11-12T18:10:06.963Z,81.10
2022-11-12T18:12:54.998Z,81.20
2022-11-12T18:15:42.679Z,81.40
2022-11-12T18:18:30.233Z,81.50
2022-11-12T18:21:17.923Z,81.80
2022-11-12T18:24:06.277Z,82.00
2022-11-12T18:26:53.603Z,82.10
2022-11-12T18:29:41.779Z,82.40
2022-11-12T18:32:30.260Z,82.50
2022-11-12T18:35:18.083Z,82.60
2022-11-12T18:38:05.972Z,82.60
2022-11-12T18:41:19.670Z,82.70
2022-11-12T18:44:07.020Z,82.90
2022-11-12T18:46:54.560Z,82.90
2022-11-12T18:49:42.151Z,83.00
2022-11-12T18:52:29.545Z,83.10
2022-11-12T18:55:17.058Z,83.30
2022-11-12T18:58:04.527Z,83.40
2022-11-12T19:00:52.617Z,83.60
2022-11-12T19:03:40.395Z,83.70
2022-11-12T19:06:28.031Z,84.40
2022-11-12T19:09:16.135Z,83.90
2022-11-12T19:12:03.787Z,84.00
2022-11-12T19:14:51.720Z,84.10
2022-11-12T19:17:39.226Z,84.20
2022-11-12T19:20:28.231Z,84.30
2022-11-12T19:23:15.930Z,84.40
2022-11-12T19:26:05.269Z,84.50
2022-11-12T19:28:54.121Z,84.60
2022-11-12T19:31:42.006Z,84.60
2022-11-12T19:34:29.471Z,84.80
2022-11-12T19:37:33.059Z,84.80
2022-11-12T19:40:21.375Z,85.00
2022-11-12T19:43:09.353Z,85.00
2022-11-12T19:45:56.955Z,85.10
2022-11-12T19:48:45.214Z,85.20
2022-11-12T19:51:33.003Z,85.30
2022-11-12T19:54:20.987Z,85.30
2022-11-12T19:57:08.351Z,85.40
2022-11-12T19:59:55.982Z,85.50
2022-11-12T20:02:43.411Z,85.70
2022-11-12T20:05:30.870Z,85.60
2022-11-12T20:08:18.794Z,85.80
2022-11-12T20:11:06.392Z,85.90
2022-11-12T20:13:54.063Z,86.60
2022-11-12T20:16:42.097Z,85.90
2022-11-12T20:19:30.452Z,86.00
2022-11-12T20:22:18.474Z,86.20
2022-11-12T20:25:06.312Z,86.30
2022-11-12T20:27:54.020Z,86.30
2022-11-12T20:30:42.177Z,86.50
2022-11-12T20:33:30.377Z,86.40
2022-11-12T20:36:20.488Z,86.40
2022-11-12T20:39:08.249Z,86.50
2022-11-12T20:41:56.057Z,86.60
2022-11-12T20:44:44.033Z,86.70
2022-11-12T20:47:32.205Z,86.80
2022-11-12T20:50:19.666Z,86.90
2022-11-12T20:53:07.601Z,86.90
2022-11-12T20:55:55.215Z,87.10
2022-11-12T20:58:43.559Z,87.20
2022-11-12T21:01:31.772Z,87.20
2022-11-12T21:04:19.449Z,87.30
2022-11-12T21:07:07.457Z,87.20
2022-11-12T21:09:55.304Z,87.30
2022-11-12T21:12:42.868Z,87.20
2022-11-12T21:15:31.269Z,87.80
2022-11-12T21:18:19.389Z,87.30
2022-11-12T21:21:12.673Z,87.40
2022-11-12T21:24:04.650Z,87.40
2022-11-12T21:26:52.570Z,87.50
2022-11-12T21:29:40.666Z,87.60
2022-11-12T21:32:28.289Z,87.70
2022-11-12T21:35:16.307Z,87.80
2022-11-12T21:38:03.728Z,87.90
2022-11-12T21:40:51.972Z,87.90
2022-11-12T21:43:43.224Z,87.90
2022-11-12T21:46:32.342Z,87.80
2022-11-12T21:49:20.047Z,87.90
2022-11-12T21:52:09.428Z,88.00
2022-11-12T21:54:57.283Z,88.00
2022-11-12T21:57:44.830Z,88.10
2022-11-12T22:00:41.917Z,88.30
2022-11-12T22:03:31.045Z,88.20
2022-11-12T22:06:21.060Z,88.20
2022-11-12T22:09:08.805Z,88.30
2022-11-12T22:11:56.223Z,88.30
2022-11-12T22:14:44.098Z,88.40
2022-11-12T22:17:35.383Z,88.40
2022-11-12T22:20:23.202Z,88.30
2022-11-12T22:23:10.683Z,88.40
2022-11-12T22:25:59.579Z,88.50
2022-11-12T22:28:47.734Z,88.50
2022-11-12T22:31:35.531Z,88.60
2022-11-12T22:34:23.184Z,88.60
2022-11-12T22:37:11.761Z,88.70
2022-11-12T22:39:59.374Z,88.70
2022-11-12T22:42:46.971Z,88.80
2022-11-12T22:45:35.382Z,88.90
2022-11-12T22:48:22.930Z,88.90
2022-11-12T22:51:15.211Z,88.90
2022-11-12T22:54:08.039Z,88.90
2022-11-12T22:56:55.823Z,88.70
2022-11-12T22:59:43.324Z,88.90
2022-11-12T23:02:31.393Z,89.00
2022-11-12T23:05:19.289Z,89.10
2022-11-12T23:08:07.147Z,89.30
2022-11-12T23:10:55.049Z,89.40
2022-11-12T23:13:43.057Z,89.40
2022-11-12T23:16:31.290Z,89.30
2022-11-12T23:19:19.015Z,89.40
2022-11-12T23:22:08.174Z,89.40
2022-11-12T23:24:55.836Z,89.10
2022-11-12T23:27:43.228Z,89.30
2022-11-12T23:30:31.105Z,89.40
2022-11-12T23:33:18.523Z,89.40
2022-11-12T23:36:08.231Z,89.20
2022-11-12T23:38:56.785Z,89.20
2022-11-12T23:41:44.644Z,89.20
2022-11-12T23:44:32.509Z,89.10
2022-11-12T23:47:20.149Z,89.30
2022-11-12T23:50:08.393Z,89.30
2022-11-12T23:52:56.030Z,89.30
2022-11-12T23:55:44.207Z,89.30
2022-11-12T23:58:32.764Z,89.30
